This is the latest recevied weather packets stored in our database for station/object N1PRS-9. If no packets are shown the sender has not sent any weather packets the latest 10 day(s).
| Time | Temp. | Humidity | Pressure | Rain* | Wind** | Luminosity | Snow |
|---|---|---|---|---|---|---|---|
| 1777844745 | 13.33° C | 37% | 1009.5 hPa | 0 mm | - | 431 W/m² | - |
| 1777844434 | 13.33° C | 37% | 1009.6 hPa | 0 mm | - | 473 W/m² | - |
| 1777844135 | 13.33° C | 38% | 1009.5 hPa | 0 mm | - | 476 W/m² | - |
| 1777843233 | 12.78° C | 39% | 1009.4 hPa | 0 mm | - | 603 W/m² | - |
| 1777842943 | 12.78° C | 40% | 1009.7 hPa | 0 mm | - | 580 W/m² | - |
| 1777842053 | 12.22° C | 40% | 1009.4 hPa | 0 mm | - | 636 W/m² | - |
| 1777840533 | 12.22° C | 41% | 1009.4 hPa | 0 mm | - | 786 W/m² | - |
| 1777839631 | 12.22° C | 38% | 1009.5 hPa | 0 mm | - | 200 W/m² | - |
| 1777836932 | 11.67° C | 39% | 1009.2 hPa | 0 mm | - | 172 W/m² | - |
| 1777835743 | 11.67° C | 40% | 1008.9 hPa | 0 mm | - | 285 W/m² | - |
| 1777834857 | 11.67° C | 40% | 1008.9 hPa | 0 mm | - | 362 W/m² | - |
| 1777833633 | 11.67° C | 39% | 1009 hPa | 0 mm | - | 345 W/m² | - |
| 1777832144 | 12.22° C | 41% | 1009.1 hPa | 0 mm | - | 1127 W/m² | - |
| 1777827647 | 10.56° C | 46% | 1009 hPa | 0 mm | - | 241 W/m² | - |
| 1777825533 | 10° C | 45% | 1008.9 hPa | 0 mm | - | 146 W/m² | - |
| 1777824944 | 10° C | 46% | 1009 hPa | 0 mm | - | 155 W/m² | - |
| 1777823733 | 10° C | 47% | 1008.9 hPa | 0 mm | - | 236 W/m² | - |
| 1777822249 | 10.56° C | 50% | 1008.8 hPa | 0 mm | - | 221 W/m² | - |
| 1777820733 | 10.56° C | 47% | 1008.8 hPa | 0 mm | - | 327 W/m² | - |
| 1777818639 | 9.44° C | 54% | 1009.2 hPa | 0 mm | - | 301 W/m² | - |
| 1777817744 | 9.44° C | 58% | 1009.1 hPa | 0 mm | - | 202 W/m² | - |
| 1777815945 | 8.33° C | 63% | 1009.1 hPa | 0 mm | - | 120 W/m² | - |
| 1777813835 | 7.22° C | 66% | 1009.4 hPa | 0 mm | - | 162 W/m² | - |
| 1777812344 | 7.22° C | 66% | 1009.5 hPa | 0 mm | - | 135 W/m² | - |
| 1777811445 | 6.67° C | 66% | 1009.6 hPa | 0 mm | - | 162 W/m² | - |
* Rain latest hour (hover to see other rain measurements)
** Current wind speed in m/s (hover to see current wind gust speed)